Time;durP1;ratioP1;P1;durP2;ratioP2;P2;SDS_P1;SDS_P2;PMS_P1;PMS_P2;Temp;Humidity;BMP_temperature;BMP_pressure;BME280_temperature;BME280_humidity;BME280_pressure;Samples;Min_cycle;Max_cycle;Signal;HPM_P1;HPM_P2
2022/12/08 00:01:12;;;;;;;;;;;;;;;;;;5086606;28;19913;-54
2022/12/08 00:03:37;;;;;;;;;;;;;;;;;;5065555;28;19955;-56
2022/12/08 00:11:30;;;;;;;;;;;;;;;;;;5062253;28;20104;-53
2022/12/08 00:13:55;;;;;;;;;;;;;;;;;;5066227;28;19952;-57
2022/12/08 00:16:20;;;;;;;;;;;;;;;;;;5072407;28;19916;-58
2022/12/08 00:18:45;;;;;;;;;;;;;;;;;;5070855;28;19936;-57
2022/12/08 00:21:10;;;;;;;;;;;;;;;;;;5072184;28;19927;-59
2022/12/08 00:23:35;;;;;;;;;;;;;;;;;;5072197;28;20349;-56
2022/12/08 00:26:00;;;;;;;;;;;;;;;;;;5068345;28;20356;-57
2022/12/08 00:28:26;;;;;;;;;;;;;;;;;;5055303;28;19938;-55
2022/12/08 00:30:51;;;;;;;;;;;;;;;;;;5067818;28;20031;-58
2022/12/08 00:33:16;;;;;;;;;;;;;;;;;;5071986;28;19919;-57
2022/12/08 00:35:41;;;;;;;;;;;;;;;;;;5072582;28;20052;-57
2022/12/08 00:38:06;;;;;;;;;;;;;;;;;;5071463;28;20312;-57
2022/12/08 00:40:31;;;;;;;;;;;;;;;;;;5071234;28;19912;-53
2022/12/08 00:42:56;;;;;;;;;;;;;;;;;;5068804;28;19913;-55
2022/12/08 00:45:22;;;;;;;;;;;;;;;;;;5071308;28;20397;-52
2022/12/08 00:47:47;;;;;;;;;;;;;;;;;;5071098;28;20360;-57
2022/12/08 00:50:12;;;;;;;;;;;;;;;;;;5071900;28;20085;-57
2022/12/08 00:52:37;;;;;;;;;;;;;;;;;;5096712;28;19916;-53
2022/12/08 00:55:02;;;;;;;;;;;;;;;;;;5071741;28;20002;-57
2022/12/08 00:57:27;;;;;;;;;;;;;;;;;;5069893;28;19916;-58
2022/12/08 00:59:52;;;;;;;;;;;;;;;;;;5073584;28;19917;-52
2022/12/08 01:02:17;;;;;;;;;;;;;;;;;;5078554;28;19912;-56
2022/12/08 01:04:43;;;;;;;;;;;;;;;;;;5076651;28;19996;-55
2022/12/08 01:07:08;;;;;;;;;;;;;;;;;;5075394;28;19916;-55
2022/12/08 01:09:33;;;;;;;;;;;;;;;;;;5076164;28;19923;-57
2022/12/08 01:11:58;;;;;;;;;;;;;;;;;;5072689;28;20324;-55
2022/12/08 01:14:23;;;;;;;;;;;;;;;;;;5070467;28;20448;-56
2022/12/08 01:16:48;;;;;;;;;;;;;;;;;;5075309;28;20003;-54
2022/12/08 01:19:13;;;;;;;;;;;;;;;;;;5074980;28;19923;-54
2022/12/08 01:21:39;;;;;;;;;;;;;;;;;;5091633;28;19916;-57
2022/12/08 01:24:04;;;;;;;;;;;;;;;;;;5072967;28;19924;-56
2022/12/08 01:26:29;;;;;;;;;;;;;;;;;;5075751;28;19908;-57
2022/12/08 01:28:54;;;;;;;;;;;;;;;;;;5075897;28;19924;-54
2022/12/08 01:31:19;;;;;;;;;;;;;;;;;;5075884;28;19916;-57
2022/12/08 01:33:44;;;;;;;;;;;;;;;;;;5088486;28;19916;-55
2022/12/08 01:36:09;;;;;;;;;;;;;;;;;;5075730;28;20333;-56
2022/12/08 01:38:35;;;;;;;;;;;;;;;;;;5074916;28;19958;-53
2022/12/08 01:41:00;;;;;;;;;;;;;;;;;;5079182;28;20368;-55
2022/12/08 01:43:25;;;;;;;;;;;;;;;;;;5076745;28;19966;-55
2022/12/08 01:45:50;;;;;;;;;;;;;;;;;;5072317;28;19920;-57
2022/12/08 01:48:17;;;;;;;;;;;;;;;;;;5074819;28;19912;-57
2022/12/08 01:50:43;;;;;;;;;;;;;;;;;;5074298;28;20281;-55
2022/12/08 01:53:08;;;;;;;;;;;;;;;;;;5075023;28;19998;-57
2022/12/08 01:55:33;;;;;;;;;;;;;;;;;;5074422;28;19935;-55
2022/12/08 01:57:58;;;;;;;;;;;;;;;;;;5074523;28;19920;-58
2022/12/08 02:00:23;;;;;;;;;;;;;;;;;;5075218;28;19909;-55
2022/12/08 02:02:48;;;;;;;;;;;;;;;;;;5075037;28;19912;-58
2022/12/08 02:05:13;;;;;;;;;;;;;;;;;;5070833;28;19913;-57
2022/12/08 02:07:39;;;;;;;;;;;;;;;;;;5067974;28;19912;-57
2022/12/08 02:10:04;;;;;;;;;;;;;;;;;;5070898;28;20433;-55
2022/12/08 02:12:29;;;;;;;;;;;;;;;;;;5073476;28;19923;-57
2022/12/08 02:14:54;;;;;;;;;;;;;;;;;;5084334;28;19959;-57
2022/12/08 02:17:19;;;;;;;;;;;;;;;;;;5085169;28;19966;-55
2022/12/08 02:19:44;;;;;;;;;;;;;;;;;;5076235;28;19923;-57
2022/12/08 02:22:09;;;;;;;;;;;;;;;;;;5074647;28;19912;-56
2022/12/08 02:24:34;;;;;;;;;;;;;;;;;;5072762;28;20020;-56
2022/12/08 02:27:00;;;;;;;;;;;;;;;;;;5079819;28;19916;-55
2022/12/08 02:29:25;;;;;;;;;;;;;;;;;;5076022;28;19920;-57
2022/12/08 02:31:50;;;;;;;;;;;;;;;;;;5080042;28;20002;-56
2022/12/08 02:34:15;;;;;;;;;;;;;;;;;;5094896;28;20488;-58
2022/12/08 02:36:40;;;;;;;;;;;;;;;;;;5082220;28;20372;-58
2022/12/08 02:39:05;;;;;;;;;;;;;;;;;;5075476;28;19912;-56
2022/12/08 02:41:30;;;;;;;;;;;;;;;;;;5072827;28;19916;-57
2022/12/08 02:43:56;;;;;;;;;;;;;;;;;;5105594;27;19973;-58
2022/12/08 02:46:21;;;;;;;;;;;;;;;;;;5078665;28;19913;-57
2022/12/08 02:48:46;;;;;;;;;;;;;;;;;;5072877;28;19919;-56
2022/12/08 02:51:11;;;;;;;;;;;;;;;;;;5083520;28;19935;-54
2022/12/08 02:53:36;;;;;;;;;;;;;;;;;;5073671;28;20026;-54
2022/12/08 02:56:01;;;;;;;;;;;;;;;;;;5074127;28;20395;-55
2022/12/08 02:58:26;;;;;;;;;;;;;;;;;;5070553;28;19917;-56
2022/12/08 03:00:51;;;;;;;;;;;;;;;;;;5073315;28;19999;-54
2022/12/08 03:03:17;;;;;;;;;;;;;;;;;;5074184;28;19908;-53
2022/12/08 03:05:42;;;;;;;;;;;;;;;;;;5078292;28;19912;-54
2022/12/08 03:08:07;;;;;;;;;;;;;;;;;;5074073;28;20292;-53
2022/12/08 03:10:32;;;;;;;;;;;;;;;;;;5071247;28;20351;-56
2022/12/08 03:12:57;;;;;;;;;;;;;;;;;;5072268;28;19946;-56
2022/12/08 03:15:22;;;;;;;;;;;;;;;;;;5070837;28;19909;-53
2022/12/08 03:17:47;;;;;;;;;;;;;;;;;;5073580;28;19923;-57
2022/12/08 03:20:12;;;;;;;;;;;;;;;;;;5069318;28;20320;-56
2022/12/08 03:22:38;;;;;;;;;;;;;;;;;;5103099;28;19912;-56
2022/12/08 03:25:03;;;;;;;;;;;;;;;;;;5073715;28;19913;-56
2022/12/08 03:27:28;;;;;;;;;;;;;;;;;;5063936;28;20011;-57
2022/12/08 03:29:53;;;;;;;;;;;;;;;;;;5056301;28;19924;-59
2022/12/08 03:32:18;;;;;;;;;;;;;;;;;;5073554;28;19909;-55
2022/12/08 03:34:43;;;;;;;;;;;;;;;;;;5071169;28;20293;-55
2022/12/08 03:37:08;;;;;;;;;;;;;;;;;;5072063;28;20265;-57
2022/12/08 03:39:33;;;;;;;;;;;;;;;;;;5073534;28;19908;-55
2022/12/08 03:41:59;;;;;;;;;;;;;;;;;;5070422;28;19913;-58
2022/12/08 03:44:24;;;;;;;;;;;;;;;;;;5073800;28;20011;-53
2022/12/08 03:46:49;;;;;;;;;;;;;;;;;;5070760;28;19916;-54
2022/12/08 03:49:14;;;;;;;;;;;;;;;;;;5072447;28;19916;-57
2022/12/08 03:51:39;;;;;;;;;;;;;;;;;;5075370;28;20002;-57
2022/12/08 03:54:04;;;;;;;;;;;;;;;;;;5072597;28;20368;-56
2022/12/08 03:56:29;;;;;;;;;;;;;;;;;;5072243;28;20446;-56
2022/12/08 03:58:55;;;;;;;;;;;;;;;;;;5073478;28;19971;-55
2022/12/08 04:01:20;;;;;;;;;;;;;;;;;;5080531;28;19924;-57
2022/12/08 04:03:45;;;;;;;;;;;;;;;;;;5064615;28;19913;-57
2022/12/08 04:06:10;;;;;;;;;;;;;;;;;;5068256;28;19955;-56
2022/12/08 04:08:35;;;;;;;;;;;;;;;;;;5103423;28;19912;-58
2022/12/08 04:11:00;;;;;;;;;;;;;;;;;;5071447;28;19917;-52
2022/12/08 04:13:25;;;;;;;;;;;;;;;;;;5069627;28;19969;-57
2022/12/08 04:15:51;;;;;;;;;;;;;;;;;;5072216;28;20296;-54
2022/12/08 04:18:16;;;;;;;;;;;;;;;;;;5072554;28;19912;-56
2022/12/08 04:20:41;;;;;;;;;;;;;;;;;;5066263;28;19921;-57
2022/12/08 04:23:06;;;;;;;;;;;;;;;;;;5063896;28;19913;-55
2022/12/08 04:25:31;;;;;;;;;;;;;;;;;;5068561;28;19920;-56
2022/12/08 04:27:56;;;;;;;;;;;;;;;;;;5072245;28;19978;-57
2022/12/08 04:30:22;;;;;;;;;;;;;;;;;;5071410;28;19970;-55
2022/12/08 04:32:47;;;;;;;;;;;;;;;;;;5070696;28;19935;-58
2022/12/08 04:35:12;;;;;;;;;;;;;;;;;;5078249;28;19913;-56
2022/12/08 04:37:37;;;;;;;;;;;;;;;;;;5071166;28;19913;-57
2022/12/08 04:40:02;;;;;;;;;;;;;;;;;;5077752;28;19960;-57
2022/12/08 04:42:27;;;;;;;;;;;;;;;;;;5072460;28;19948;-57
2022/12/08 04:44:52;;;;;;;;;;;;;;;;;;5069951;28;19935;-51
2022/12/08 04:47:19;;;;;;;;;;;;;;;;;;5103736;28;20048;-58
2022/12/08 04:49:44;;;;;;;;;;;;;;;;;;5072716;28;19962;-58
2022/12/08 04:52:09;;;;;;;;;;;;;;;;;;5070815;28;19913;-54
2022/12/08 04:54:34;;;;;;;;;;;;;;;;;;5066502;28;20407;-58
2022/12/08 04:57:00;;;;;;;;;;;;;;;;;;5072185;28;19909;-56
2022/12/08 04:59:25;;;;;;;;;;;;;;;;;;5071849;28;19916;-54
2022/12/08 05:01:50;;;;;;;;;;;;;;;;;;5072595;28;19922;-57
2022/12/08 05:04:15;;;;;;;;;;;;;;;;;;5071688;28;19908;-56
2022/12/08 05:06:40;;;;;;;;;;;;;;;;;;5103778;28;19916;-57
2022/12/08 05:09:05;;;;;;;;;;;;;;;;;;5057213;28;20308;-57
2022/12/08 05:11:30;;;;;;;;;;;;;;;;;;5071128;28;19924;-54
2022/12/08 05:13:56;;;;;;;;;;;;;;;;;;5101705;28;20395;-57
2022/12/08 05:16:21;;;;;;;;;;;;;;;;;;5069678;28;19962;-56
2022/12/08 05:18:46;;;;;;;;;;;;;;;;;;5071363;28;19912;-57
2022/12/08 05:21:11;;;;;;;;;;;;;;;;;;5070311;28;19913;-57
2022/12/08 05:23:36;;;;;;;;;;;;;;;;;;5071268;28;19948;-56
2022/12/08 05:26:01;;;;;;;;;;;;;;;;;;5070111;28;19912;-57
2022/12/08 05:28:26;;;;;;;;;;;;;;;;;;5071456;28;19920;-58
2022/12/08 05:30:52;;;;;;;;;;;;;;;;;;5071778;28;19917;-58
2022/12/08 05:33:17;;;;;;;;;;;;;;;;;;5071645;28;19957;-58
2022/12/08 05:35:42;;;;;;;;;;;;;;;;;;5071219;28;19967;-57
2022/12/08 05:38:07;;;;;;;;;;;;;;;;;;5067825;28;19909;-58
2022/12/08 05:40:32;;;;;;;;;;;;;;;;;;5060545;28;19912;-56
2022/12/08 05:42:57;;;;;;;;;;;;;;;;;;5057962;28;19920;-56
2022/12/08 05:45:22;;;;;;;;;;;;;;;;;;5092409;28;19944;-57
2022/12/08 05:47:48;;;;;;;;;;;;;;;;;;5076281;28;20388;-57
2022/12/08 05:50:13;;;;;;;;;;;;;;;;;;5094492;28;19912;-56
2022/12/08 05:52:38;;;;;;;;;;;;;;;;;;5075102;28;19913;-56
2022/12/08 05:55:03;;;;;;;;;;;;;;;;;;5072188;28;19918;-57
2022/12/08 05:57:28;;;;;;;;;;;;;;;;;;5075176;28;19913;-55
2022/12/08 05:59:53;;;;;;;;;;;;;;;;;;5068948;28;19912;-56
2022/12/08 06:02:18;;;;;;;;;;;;;;;;;;5105732;27;19956;-57
2022/12/08 06:04:44;;;;;;;;;;;;;;;;;;5072410;28;19996;-58
2022/12/08 06:07:09;;;;;;;;;;;;;;;;;;5067257;28;19913;-58
2022/12/08 06:09:34;;;;;;;;;;;;;;;;;;5064268;28;19917;-55
2022/12/08 06:11:59;;;;;;;;;;;;;;;;;;5096401;28;20319;-55
2022/12/08 06:14:24;;;;;;;;;;;;;;;;;;5062912;28;19912;-57
2022/12/08 06:16:49;;;;;;;;;;;;;;;;;;5079502;28;19924;-58
2022/12/08 06:19:14;;;;;;;;;;;;;;;;;;5065518;28;20639;-55
2022/12/08 06:21:39;;;;;;;;;;;;;;;;;;5072537;28;19920;-57
2022/12/08 06:24:05;;;;;;;;;;;;;;;;;;5068479;28;19966;-58
2022/12/08 06:26:30;;;;;;;;;;;;;;;;;;5079590;28;20360;-57
2022/12/08 06:28:55;;;;;;;;;;;;;;;;;;5072629;28;20015;-57
2022/12/08 06:31:20;;;;;;;;;;;;;;;;;;5084462;28;19908;-55
2022/12/08 06:33:45;;;;;;;;;;;;;;;;;;5076640;28;19912;-58
2022/12/08 06:36:10;;;;;;;;;;;;;;;;;;5088902;28;19929;-57
2022/12/08 06:38:35;;;;;;;;;;;;;;;;;;5073776;28;19916;-57
2022/12/08 06:41:01;;;;;;;;;;;;;;;;;;5074454;28;19913;-60
2022/12/08 06:43:26;;;;;;;;;;;;;;;;;;5092832;28;19948;-59
2022/12/08 06:45:51;;;;;;;;;;;;;;;;;;5071214;28;19909;-60
2022/12/08 06:48:16;;;;;;;;;;;;;;;;;;5072958;28;19962;-60
2022/12/08 06:50:41;;;;;;;;;;;;;;;;;;5072453;28;19962;-61
2022/12/08 06:53:06;;;;;;;;;;;;;;;;;;5073467;28;19916;-61
2022/12/08 06:55:31;;;;;;;;;;;;;;;;;;5074396;28;19944;-61
2022/12/08 06:57:57;;;;;;;;;;;;;;;;;;5072846;28;19920;-61
2022/12/08 07:00:22;;;;;;;;;;;;;;;;;;5072117;28;20291;-61
2022/12/08 07:02:47;;;;;;;;;;;;;;;;;;5073450;28;19913;-61
2022/12/08 07:05:12;;;;;;;;;;;;;;;;;;5072670;28;19913;-62
2022/12/08 07:07:37;;;;;;;;;;;;;;;;;;5073482;28;20428;-61
2022/12/08 07:10:02;;;;;;;;;;;;;;;;;;5072770;28;19986;-61
2022/12/08 07:12:27;;;;;;;;;;;;;;;;;;5103720;28;19913;-61
2022/12/08 07:14:52;;;;;;;;;;;;;;;;;;5070282;28;19935;-61
2022/12/08 07:17:18;;;;;;;;;;;;;;;;;;5073431;28;20007;-61
2022/12/08 07:19:43;;;;;;;;;;;;;;;;;;5089577;28;20356;-61
2022/12/08 07:22:08;;;;;;;;;;;;;;;;;;5089090;28;20375;-60
2022/12/08 07:24:33;;;;;;;;;;;;;;;;;;5089466;28;19909;-61
2022/12/08 07:26:58;;;;;;;;;;;;;;;;;;5073684;28;20342;-61
2022/12/08 07:29:23;;;;;;;;;;;;;;;;;;5073271;28;19958;-62
2022/12/08 07:31:48;;;;;;;;;;;;;;;;;;5073422;28;19962;-61
2022/12/08 07:34:14;;;;;;;;;;;;;;;;;;5073586;28;19909;-61
2022/12/08 07:36:39;;;;;;;;;;;;;;;;;;5073254;28;19948;-61
2022/12/08 07:39:04;;;;;;;;;;;;;;;;;;5072745;28;19912;-61
2022/12/08 07:41:29;;;;;;;;;;;;;;;;;;5092868;28;19909;-61
2022/12/08 07:43:54;;;;;;;;;;;;;;;;;;5078403;28;19948;-61
2022/12/08 07:46:19;;;;;;;;;;;;;;;;;;5088814;28;19957;-61
2022/12/08 07:48:45;;;;;;;;;;;;;;;;;;5073135;28;20077;-61
2022/12/08 07:51:10;;;;;;;;;;;;;;;;;;5073244;28;20279;-61
2022/12/08 07:53:35;;;;;;;;;;;;;;;;;;5072853;28;19920;-61
2022/12/08 07:56:00;;;;;;;;;;;;;;;;;;5072825;28;19908;-61
2022/12/08 07:58:26;;;;;;;;;;;;;;;;;;5072748;28;19915;-61
2022/12/08 08:00:51;;;;;;;;;;;;;;;;;;5072877;28;19920;-61
2022/12/08 08:03:16;;;;;;;;;;;;;;;;;;5072980;28;19920;-61
2022/12/08 08:05:43;;;;;;;;;;;;;;;;;;5073083;28;19962;-61
2022/12/08 08:08:08;;;;;;;;;;;;;;;;;;5072212;28;19974;-61
2022/12/08 08:10:33;;;;;;;;;;;;;;;;;;5071666;28;19960;-61
2022/12/08 08:12:58;;;;;;;;;;;;;;;;;;5071319;28;19974;-61
2022/12/08 08:15:24;;;;;;;;;;;;;;;;;;5087962;28;19912;-61
2022/12/08 08:17:52;;;;;;;;;;;;;;;;;;5072631;28;20299;-61
2022/12/08 08:20:17;;;;;;;;;;;;;;;;;;5071604;28;19908;-61
2022/12/08 08:22:42;;;;;;;;;;;;;;;;;;5072739;28;19932;-61
2022/12/08 08:25:08;;;;;;;;;;;;;;;;;;5072575;28;20427;-61
2022/12/08 08:27:33;;;;;;;;;;;;;;;;;;5087092;28;19928;-61
2022/12/08 08:29:58;;;;;;;;;;;;;;;;;;5071950;28;19967;-61
2022/12/08 08:32:23;;;;;;;;;;;;;;;;;;5072733;28;19908;-61
2022/12/08 08:34:48;;;;;;;;;;;;;;;;;;5072627;28;20027;-61
2022/12/08 08:37:13;;;;;;;;;;;;;;;;;;5087783;28;20021;-61
2022/12/08 08:39:38;;;;;;;;;;;;;;;;;;5072037;28;19913;-61
2022/12/08 08:42:03;;;;;;;;;;;;;;;;;;5088212;28;19913;-60
2022/12/08 08:44:29;;;;;;;;;;;;;;;;;;5071865;28;20364;-62
2022/12/08 08:46:54;;;;;;;;;;;;;;;;;;5087893;28;19908;-60
2022/12/08 08:49:19;;;;;;;;;;;;;;;;;;5072692;28;19919;-61
2022/12/08 08:51:44;;;;;;;;;;;;;;;;;;5071899;28;19916;-61
2022/12/08 08:54:09;;;;;;;;;;;;;;;;;;5072575;28;19919;-61
2022/12/08 08:56:34;;;;;;;;;;;;;;;;;;5075903;28;20360;-61
2022/12/08 08:59:01;;;;;;;;;;;;;;;;;;5081700;28;19909;-61
2022/12/08 09:01:27;;;;;;;;;;;;;;;;;;5072183;28;19954;-61
2022/12/08 09:03:52;;;;;;;;;;;;;;;;;;5072749;28;19952;-60
2022/12/08 09:06:17;;;;;;;;;;;;;;;;;;5089739;28;19912;-60
2022/12/08 09:08:42;;;;;;;;;;;;;;;;;;5091991;28;19932;-61
2022/12/08 09:11:07;;;;;;;;;;;;;;;;;;5092371;28;19913;-60
2022/12/08 09:13:32;;;;;;;;;;;;;;;;;;5081027;28;19960;-60
2022/12/08 09:15:57;;;;;;;;;;;;;;;;;;5071496;28;19908;-61
2022/12/08 09:18:22;;;;;;;;;;;;;;;;;;5105216;28;20280;-61
2022/12/08 09:20:48;;;;;;;;;;;;;;;;;;5089608;28;19997;-61
2022/12/08 09:23:13;;;;;;;;;;;;;;;;;;5076057;28;19962;-61
2022/12/08 09:25:38;;;;;;;;;;;;;;;;;;5076079;28;19912;-61
2022/12/08 09:28:03;;;;;;;;;;;;;;;;;;5075688;28;19946;-61
2022/12/08 09:30:28;;;;;;;;;;;;;;;;;;5074299;28;19960;-60
2022/12/08 09:32:53;;;;;;;;;;;;;;;;;;5075933;28;19912;-61
2022/12/08 09:35:18;;;;;;;;;;;;;;;;;;5075657;28;19908;-61
2022/12/08 09:37:44;;;;;;;;;;;;;;;;;;5090941;28;19912;-60
2022/12/08 09:40:09;;;;;;;;;;;;;;;;;;5076110;28;20311;-59
2022/12/08 09:42:34;;;;;;;;;;;;;;;;;;5074292;28;20403;-60
2022/12/08 09:45:00;;;;;;;;;;;;;;;;;;5074201;28;19912;-60
2022/12/08 09:47:25;;;;;;;;;;;;;;;;;;5075341;28;19913;-62
2022/12/08 09:49:50;;;;;;;;;;;;;;;;;;5091301;28;19920;-61
2022/12/08 09:52:15;;;;;;;;;;;;;;;;;;5075468;28;19909;-61
2022/12/08 09:54:41;;;;;;;;;;;;;;;;;;5076354;28;19916;-61
2022/12/08 09:57:06;;;;;;;;;;;;;;;;;;5074825;28;19962;-62
2022/12/08 09:59:31;;;;;;;;;;;;;;;;;;5074850;28;20041;-61
2022/12/08 10:01:56;;;;;;;;;;;;;;;;;;5075195;28;19912;-60
2022/12/08 10:04:21;;;;;;;;;;;;;;;;;;5075407;28;19913;-60
2022/12/08 10:06:46;;;;;;;;;;;;;;;;;;5074855;28;20339;-61
2022/12/08 10:09:11;;;;;;;;;;;;;;;;;;5091290;28;19912;-61
2022/12/08 10:11:36;;;;;;;;;;;;;;;;;;5107803;28;19909;-61
2022/12/08 10:14:02;;;;;;;;;;;;;;;;;;5072435;28;20284;-60
2022/12/08 10:16:28;;;;;;;;;;;;;;;;;;5074789;28;20027;-60
2022/12/08 10:18:53;;;;;;;;;;;;;;;;;;5074914;28;20379;-61
2022/12/08 10:21:19;;;;;;;;;;;;;;;;;;5076509;28;19932;-61
2022/12/08 10:23:44;;;;;;;;;;;;;;;;;;5074924;28;20382;-61
2022/12/08 10:26:09;;;;;;;;;;;;;;;;;;5074889;28;20018;-61
2022/12/08 10:28:34;;;;;;;;;;;;;;;;;;5089998;28;19931;-62
2022/12/08 10:30:59;;;;;;;;;;;;;;;;;;5074217;28;19912;-62
2022/12/08 10:33:25;;;;;;;;;;;;;;;;;;5074522;28;19969;-61
2022/12/08 10:35:50;;;;;;;;;;;;;;;;;;5074796;28;20293;-61
2022/12/08 10:38:15;;;;;;;;;;;;;;;;;;5074183;28;19909;-60
2022/12/08 10:40:40;;;;;;;;;;;;;;;;;;5074746;28;20288;-60
2022/12/08 10:43:05;;;;;;;;;;;;;;;;;;5073214;28;20427;-60
2022/12/08 10:45:30;;;;;;;;;;;;;;;;;;5074132;28;19912;-60
2022/12/08 10:47:56;;;;;;;;;;;;;;;;;;5074308;28;20294;-60
2022/12/08 10:50:21;;;;;;;;;;;;;;;;;;5074312;28;20007;-60
2022/12/08 10:52:46;;;;;;;;;;;;;;;;;;5074465;28;20059;-60
2022/12/08 10:55:11;;;;;;;;;;;;;;;;;;5089946;28;19915;-59
2022/12/08 10:57:36;;;;;;;;;;;;;;;;;;5073940;28;20348;-61
2022/12/08 11:00:01;;;;;;;;;;;;;;;;;;5091468;28;20257;-61
2022/12/08 11:02:27;;;;;;;;;;;;;;;;;;5090012;28;19915;-61
2022/12/08 11:04:52;;;;;;;;;;;;;;;;;;5074359;28;19915;-61
2022/12/08 11:07:17;;;;;;;;;;;;;;;;;;5088470;28;19916;-60
2022/12/08 11:09:47;;;;;;;;;;;;;;;;;;5073843;28;19916;-61
2022/12/08 11:12:13;;;;;;;;;;;;;;;;;;5074003;28;19915;-60
2022/12/08 11:14:38;;;;;;;;;;;;;;;;;;5071701;28;19908;-60
2022/12/08 11:17:03;;;;;;;;;;;;;;;;;;5073730;28;19942;-61
2022/12/08 11:19:28;;;;;;;;;;;;;;;;;;5074831;28;19908;-61
2022/12/08 11:21:53;;;;;;;;;;;;;;;;;;5073154;28;19913;-61
2022/12/08 11:24:19;;;;;;;;;;;;;;;;;;5073827;28;20214;-61
2022/12/08 11:26:44;;;;;;;;;;;;;;;;;;5073482;28;20457;-61
2022/12/08 11:29:09;;;;;;;;;;;;;;;;;;5071377;28;19916;-61
2022/12/08 11:31:34;;;;;;;;;;;;;;;;;;5073555;28;19947;-61
2022/12/08 11:33:59;;;;;;;;;;;;;;;;;;5073829;28;19916;-61
2022/12/08 11:36:24;;;;;;;;;;;;;;;;;;5073435;28;19909;-61
2022/12/08 11:38:50;;;;;;;;;;;;;;;;;;5073036;28;20453;-61
2022/12/08 11:41:16;;;;;;;;;;;;;;;;;;5073351;28;19997;-61
2022/12/08 11:43:41;;;;;;;;;;;;;;;;;;5071183;28;19940;-61
2022/12/08 11:46:06;;;;;;;;;;;;;;;;;;5089097;28;19916;-61
2022/12/08 11:48:31;;;;;;;;;;;;;;;;;;5072716;28;19909;-61
2022/12/08 11:50:57;;;;;;;;;;;;;;;;;;5074987;28;20378;-61
2022/12/08 11:53:22;;;;;;;;;;;;;;;;;;5072454;28;19943;-61
2022/12/08 11:55:47;;;;;;;;;;;;;;;;;;5073085;28;19913;-61
2022/12/08 11:58:12;;;;;;;;;;;;;;;;;;5088389;28;19913;-61
2022/12/08 12:00:37;;;;;;;;;;;;;;;;;;5072036;28;19923;-61
2022/12/08 12:03:02;;;;;;;;;;;;;;;;;;5073350;28;20299;-61
2022/12/08 12:05:27;;;;;;;;;;;;;;;;;;5072797;28;20400;-59
2022/12/08 12:07:52;;;;;;;;;;;;;;;;;;5071002;28;19912;-63
2022/12/08 12:10:18;;;;;;;;;;;;;;;;;;5118477;27;19973;-65
2022/12/08 12:12:43;;;;;;;;;;;;;;;;;;5065306;28;19920;-63
2022/12/08 12:15:08;;;;;;;;;;;;;;;;;;5071439;28;19920;-62
2022/12/08 12:17:33;;;;;;;;;;;;;;;;;;5069504;28;19939;-65
2022/12/08 12:19:58;;;;;;;;;;;;;;;;;;5084961;28;20303;-64
2022/12/08 12:22:23;;;;;;;;;;;;;;;;;;5100233;28;20280;-63
2022/12/08 12:24:48;;;;;;;;;;;;;;;;;;5082999;28;20510;-62
2022/12/08 12:27:14;;;;;;;;;;;;;;;;;;5092477;28;20384;-62
2022/12/08 12:29:39;;;;;;;;;;;;;;;;;;5074795;28;19923;-62
2022/12/08 12:32:04;;;;;;;;;;;;;;;;;;5071117;28;19916;-61
2022/12/08 12:34:29;;;;;;;;;;;;;;;;;;5087992;28;19915;-61
2022/12/08 12:36:54;;;;;;;;;;;;;;;;;;5071945;28;19912;-62
2022/12/08 12:39:19;;;;;;;;;;;;;;;;;;5087999;28;19943;-62
2022/12/08 12:41:44;;;;;;;;;;;;;;;;;;5074443;28;20012;-62
2022/12/08 12:44:10;;;;;;;;;;;;;;;;;;5062157;28;20011;-62
2022/12/08 12:46:35;;;;;;;;;;;;;;;;;;5103848;28;19913;-62
2022/12/08 12:49:00;;;;;;;;;;;;;;;;;;5072736;28;20460;-63
2022/12/08 12:51:25;;;;;;;;;;;;;;;;;;5072973;28;19928;-62
2022/12/08 12:53:51;;;;;;;;;;;;;;;;;;5071757;28;19912;-62
2022/12/08 12:56:16;;;;;;;;;;;;;;;;;;5069865;28;19928;-62
2022/12/08 12:58:41;;;;;;;;;;;;;;;;;;5071936;28;20337;-62
2022/12/08 13:01:06;;;;;;;;;;;;;;;;;;5071924;28;19913;-61
2022/12/08 13:03:31;;;;;;;;;;;;;;;;;;5072242;28;20280;-62
2022/12/08 13:05:56;;;;;;;;;;;;;;;;;;5069179;28;19920;-62
2022/12/08 13:08:22;;;;;;;;;;;;;;;;;;5071838;28;19995;-62
2022/12/08 13:10:47;;;;;;;;;;;;;;;;;;5072246;28;20281;-62
2022/12/08 13:13:13;;;;;;;;;;;;;;;;;;5085912;28;19912;-62
2022/12/08 13:15:39;;;;;;;;;;;;;;;;;;5071025;28;19970;-62
2022/12/08 13:18:04;;;;;;;;;;;;;;;;;;5071776;28;20372;-62
2022/12/08 13:20:29;;;;;;;;;;;;;;;;;;5072165;28;19909;-62
2022/12/08 13:22:54;;;;;;;;;;;;;;;;;;5072187;28;19908;-62
2022/12/08 13:25:19;;;;;;;;;;;;;;;;;;5072087;28;20424;-62
2022/12/08 13:27:44;;;;;;;;;;;;;;;;;;5071080;28;19921;-63
2022/12/08 13:30:09;;;;;;;;;;;;;;;;;;5071251;28;19919;-62
2022/12/08 13:32:34;;;;;;;;;;;;;;;;;;5072087;28;19908;-62
2022/12/08 13:35:00;;;;;;;;;;;;;;;;;;5104443;28;20372;-62
2022/12/08 13:37:25;;;;;;;;;;;;;;;;;;5071101;28;19913;-62
2022/12/08 13:39:51;;;;;;;;;;;;;;;;;;5072036;28;19912;-62
2022/12/08 13:42:16;;;;;;;;;;;;;;;;;;5072064;28;19912;-63
2022/12/08 13:44:41;;;;;;;;;;;;;;;;;;5084718;28;19923;-62
2022/12/08 13:47:06;;;;;;;;;;;;;;;;;;5071268;28;19998;-62
2022/12/08 13:49:31;;;;;;;;;;;;;;;;;;5071836;28;19920;-62
2022/12/08 13:51:56;;;;;;;;;;;;;;;;;;5071591;28;20323;-62
2022/12/08 13:54:21;;;;;;;;;;;;;;;;;;5087379;28;20380;-62
2022/12/08 13:56:47;;;;;;;;;;;;;;;;;;5071497;28;19951;-62
2022/12/08 13:59:12;;;;;;;;;;;;;;;;;;5070846;28;19935;-62
2022/12/08 14:01:37;;;;;;;;;;;;;;;;;;5068925;28;20339;-62
2022/12/08 14:04:02;;;;;;;;;;;;;;;;;;5073413;28;19918;-62
2022/12/08 14:06:27;;;;;;;;;;;;;;;;;;5071122;28;19963;-62
2022/12/08 14:08:52;;;;;;;;;;;;;;;;;;5074580;28;19912;-62
2022/12/08 14:11:32;;;;;;;;;;;;;;;;;;5071983;28;19920;-61
2022/12/08 14:13:57;;;;;;;;;;;;;;;;;;5071259;28;20413;-62
2022/12/08 14:16:22;;;;;;;;;;;;;;;;;;5080326;28;20007;-62
2022/12/08 14:18:47;;;;;;;;;;;;;;;;;;5070862;28;19916;-62
2022/12/08 14:21:12;;;;;;;;;;;;;;;;;;5073198;28;19916;-64
2022/12/08 14:23:37;;;;;;;;;;;;;;;;;;5073815;28;20060;-63
2022/12/08 14:26:03;;;;;;;;;;;;;;;;;;5073205;28;20269;-63
2022/12/08 14:28:28;;;;;;;;;;;;;;;;;;5072634;28;19920;-63
2022/12/08 14:30:53;;;;;;;;;;;;;;;;;;5071353;28;20491;-63
2022/12/08 14:33:18;;;;;;;;;;;;;;;;;;5069893;28;19970;-63
2022/12/08 14:35:43;;;;;;;;;;;;;;;;;;5065128;28;19913;-63
2022/12/08 14:38:08;;;;;;;;;;;;;;;;;;5071831;28;19962;-63
2022/12/08 14:40:33;;;;;;;;;;;;;;;;;;5072627;28;19943;-63
2022/12/08 14:42:59;;;;;;;;;;;;;;;;;;5105017;27;19920;-63
2022/12/08 14:45:24;;;;;;;;;;;;;;;;;;5070793;28;20296;-63
2022/12/08 14:47:50;;;;;;;;;;;;;;;;;;5078565;28;20277;-63
2022/12/08 14:50:15;;;;;;;;;;;;;;;;;;5076697;28;20335;-63
2022/12/08 14:52:40;;;;;;;;;;;;;;;;;;5072710;28;19916;-63
2022/12/08 14:55:05;;;;;;;;;;;;;;;;;;5082148;28;19912;-63
2022/12/08 14:57:30;;;;;;;;;;;;;;;;;;5072120;28;19979;-63
2022/12/08 14:59:55;;;;;;;;;;;;;;;;;;5103773;28;19920;-63
2022/12/08 15:02:21;;;;;;;;;;;;;;;;;;5070440;28;19916;-63
2022/12/08 15:04:46;;;;;;;;;;;;;;;;;;5071767;28;19913;-64
2022/12/08 15:07:11;;;;;;;;;;;;;;;;;;5072360;28;20053;-63
2022/12/08 15:09:37;;;;;;;;;;;;;;;;;;5102610;28;19916;-63
2022/12/08 15:12:02;;;;;;;;;;;;;;;;;;5071836;28;19916;-63
2022/12/08 15:14:27;;;;;;;;;;;;;;;;;;5101082;28;19916;-60
2022/12/08 15:16:54;;;;;;;;;;;;;;;;;;5072208;28;20046;-63
2022/12/08 15:19:22;;;;;;;;;;;;;;;;;;5071667;28;19963;-64
2022/12/08 15:21:47;;;;;;;;;;;;;;;;;;5072562;28;20012;-64
2022/12/08 15:24:12;;;;;;;;;;;;;;;;;;5066624;28;20401;-63
2022/12/08 15:26:37;;;;;;;;;;;;;;;;;;5101267;28;19913;-62
2022/12/08 15:29:02;;;;;;;;;;;;;;;;;;5065017;28;20388;-62
2022/12/08 15:31:27;;;;;;;;;;;;;;;;;;5078085;28;20388;-62
2022/12/08 15:33:54;;;;;;;;;;;;;;;;;;5100319;28;21604;-61
2022/12/08 15:36:19;;;;;;;;;;;;;;;;;;5071301;28;19916;-61
2022/12/08 15:38:45;;;;;;;;;;;;;;;;;;5093924;28;19916;-61
2022/12/08 15:41:10;;;;;;;;;;;;;;;;;;5099222;28;19916;-62
2022/12/08 15:43:35;;;;;;;;;;;;;;;;;;5080515;28;19913;-61
2022/12/08 15:46:00;;;;;;;;;;;;;;;;;;5063343;28;19924;-62
2022/12/08 15:48:28;;;;;;;;;;;;;;;;;;5102601;28;19912;-63
2022/12/08 15:50:53;;;;;;;;;;;;;;;;;;5071075;28;19916;-62
2022/12/08 15:53:18;;;;;;;;;;;;;;;;;;5102659;28;19920;-62
2022/12/08 15:55:44;;;;;;;;;;;;;;;;;;5069276;28;19965;-62
2022/12/08 15:58:09;;;;;;;;;;;;;;;;;;5067290;28;19944;-62
2022/12/08 16:00:34;;;;;;;;;;;;;;;;;;5072085;28;19912;-62
2022/12/08 16:02:59;;;;;;;;;;;;;;;;;;5069656;28;19912;-62
2022/12/08 16:05:24;;;;;;;;;;;;;;;;;;5066046;28;19917;-62
2022/12/08 16:07:49;;;;;;;;;;;;;;;;;;5067804;28;20283;-61
2022/12/08 16:10:16;;;;;;;;;;;;;;;;;;5070809;28;20384;-61
2022/12/08 16:15:25;;;;;;;;;;;;;;;;;;5071099;28;19932;-61
2022/12/08 16:17:50;;;;;;;;;;;;;;;;;;5067395;28;20273;-61
2022/12/08 16:20:16;;;;;;;;;;;;;;;;;;5101948;28;19913;-61
2022/12/08 16:22:41;;;;;;;;;;;;;;;;;;5068297;28;19927;-61
2022/12/08 16:25:07;;;;;;;;;;;;;;;;;;5071257;28;20296;-61
2022/12/08 16:27:32;;;;;;;;;;;;;;;;;;5069385;28;19960;-61
2022/12/08 16:29:57;;;;;;;;;;;;;;;;;;5068632;28;19928;-62
2022/12/08 16:32:22;;;;;;;;;;;;;;;;;;5096930;28;19927;-62
2022/12/08 16:34:47;;;;;;;;;;;;;;;;;;5071935;28;19916;-61
2022/12/08 16:37:12;;;;;;;;;;;;;;;;;;5101825;28;20376;-61
2022/12/08 16:39:37;;;;;;;;;;;;;;;;;;5062526;28;19962;-61